createdAt,value
2022-08-16T00:01:02.060Z,35.39
2022-08-16T00:03:37.850Z,35.35
2022-08-16T00:06:10.901Z,35.24
2022-08-16T00:08:45.742Z,35.16
2022-08-16T00:11:18.983Z,35.31
2022-08-16T00:13:55.511Z,35.06
2022-08-16T00:17:01.067Z,35.03
2022-08-16T00:19:08.101Z,34.86
2022-08-16T00:21:41.550Z,34.81
2022-08-16T00:24:31.381Z,34.84
2022-08-16T00:26:51.456Z,34.73
2022-08-16T00:29:24.607Z,34.46
2022-08-16T00:32:01.321Z,34.47
2022-08-16T00:34:43.543Z,34.43
2022-08-16T00:37:07.310Z,34.58
2022-08-16T00:39:40.189Z,34.38
2022-08-16T00:42:13.510Z,34.38
2022-08-16T00:44:50.330Z,34.52
2022-08-16T00:47:26.799Z,34.58
2022-08-16T00:50:01.298Z,34.56
2022-08-16T00:52:34.235Z,34.60
2022-08-16T00:55:09.803Z,34.45
2022-08-16T00:57:58.560Z,34.57
2022-08-16T01:00:19.876Z,34.52
2022-08-16T01:02:53.716Z,34.50
2022-08-16T01:05:27.614Z,34.44
2022-08-16T01:08:00.845Z,34.27
2022-08-16T01:10:35.871Z,34.30
2022-08-16T01:13:15.242Z,34.16
2022-08-16T01:16:10.258Z,34.08
2022-08-16T01:18:48.183Z,34.05
2022-08-16T01:21:33.649Z,34.01
2022-08-16T01:24:53.722Z,33.96
2022-08-16T01:27:20.117Z,33.84
2022-08-16T01:30:20.172Z,34.03
2022-08-16T01:32:43.964Z,33.84
2022-08-16T01:35:25.249Z,33.73
2022-08-16T01:38:03.595Z,33.77
2022-08-16T01:40:38.018Z,33.79
2022-08-16T01:43:11.321Z,33.78
2022-08-16T01:45:46.153Z,33.78
2022-08-16T01:48:20.651Z,33.78
2022-08-16T01:51:09.488Z,33.83
2022-08-16T01:53:31.439Z,33.95
2022-08-16T01:56:07.570Z,33.99
2022-08-16T01:58:47.910Z,34.07
2022-08-16T02:01:17.126Z,34.19
2022-08-16T02:03:51.943Z,34.30
2022-08-16T02:06:34.364Z,34.41
2022-08-16T02:09:01.143Z,34.52
2022-08-16T02:11:47.653Z,34.54
2022-08-16T02:14:18.547Z,34.66
2022-08-16T02:16:44.999Z,34.68
2022-08-16T02:19:20.214Z,34.68
2022-08-16T02:22:08.584Z,34.73
2022-08-16T02:24:32.535Z,34.88
2022-08-16T02:27:05.970Z,34.81
2022-08-16T02:29:41.372Z,34.97
2022-08-16T02:32:50.234Z,34.98
2022-08-16T02:34:52.041Z,35.09
2022-08-16T02:37:45.702Z,35.27
2022-08-16T02:40:01.479Z,35.27
2022-08-16T02:42:36.032Z,35.34
2022-08-16T02:45:11.267Z,35.29
2022-08-16T02:48:00.214Z,35.39
2022-08-16T02:50:54.919Z,35.43
2022-08-16T02:52:55.077Z,35.49
2022-08-16T02:55:40.698Z,35.55
2022-08-16T02:58:03.449Z,35.47
2022-08-16T03:00:38.814Z,35.49
2022-08-16T03:03:17.605Z,35.56
2022-08-16T03:05:49.770Z,35.58
2022-08-16T03:08:50.589Z,35.54
2022-08-16T03:10:59.457Z,35.60
2022-08-16T03:13:40.299Z,35.62
2022-08-16T03:16:33.089Z,35.56
2022-08-16T03:18:43.612Z,35.59
2022-08-16T03:21:18.542Z,35.63
2022-08-16T03:23:51.746Z,35.81
2022-08-16T03:26:24.854Z,35.89
2022-08-16T03:28:57.899Z,35.95
2022-08-16T03:31:34.882Z,35.92
2022-08-16T03:34:05.553Z,35.98
2022-08-16T03:36:38.595Z,36.03
2022-08-16T03:39:14.891Z,35.95
2022-08-16T03:41:50.912Z,35.95
2022-08-16T03:44:44.428Z,36.06
2022-08-16T03:46:58.246Z,36.26
2022-08-16T03:49:36.784Z,36.28
2022-08-16T03:52:08.490Z,36.51
2022-08-16T03:54:52.954Z,36.49
2022-08-16T03:57:17.055Z,36.52
2022-08-16T03:59:50.992Z,36.62
2022-08-16T04:02:31.631Z,36.62
2022-08-16T04:05:00.723Z,36.54
2022-08-16T04:07:35.798Z,36.90
2022-08-16T04:10:36.097Z,36.91
2022-08-16T04:12:54.377Z,37.52
2022-08-16T04:15:22.711Z,37.81
2022-08-16T04:18:01.771Z,38.05
2022-08-16T04:20:37.017Z,38.35
2022-08-16T04:23:11.082Z,38.37
2022-08-16T04:25:47.060Z,38.43
2022-08-16T04:28:54.593Z,38.98
2022-08-16T04:30:55.171Z,39.25
2022-08-16T04:33:28.501Z,39.40
2022-08-16T04:36:03.048Z,39.75
2022-08-16T04:38:37.958Z,39.92
2022-08-16T04:41:10.982Z,40.22
2022-08-16T04:43:46.374Z,39.95
2022-08-16T04:47:01.186Z,40.25
2022-08-16T04:48:57.259Z,39.80
2022-08-16T04:51:36.076Z,39.50
2022-08-16T04:54:05.833Z,39.55
2022-08-16T04:56:42.737Z,39.41
2022-08-16T04:59:14.707Z,39.37
2022-08-16T05:01:57.927Z,39.19
2022-08-16T05:04:25.992Z,39.36
2022-08-16T05:07:01.192Z,39.31
2022-08-16T05:09:38.938Z,39.03
2022-08-16T05:12:13.530Z,39.09
2022-08-16T05:15:02.438Z,39.05
2022-08-16T05:17:24.816Z,38.87
2022-08-16T05:20:00.418Z,38.57
2022-08-16T05:22:36.688Z,38.72
2022-08-16T05:25:12.550Z,38.74
2022-08-16T05:27:47.159Z,38.93
2022-08-16T05:30:35.661Z,39.00
2022-08-16T05:32:57.075Z,38.76
2022-08-16T05:35:31.558Z,38.92
2022-08-16T05:38:30.948Z,39.34
2022-08-16T05:40:41.985Z,39.35
2022-08-16T05:43:17.588Z,40.45
2022-08-16T05:45:52.144Z,40.52
2022-08-16T05:48:26.867Z,41.10
2022-08-16T05:51:02.220Z,41.62
2022-08-16T05:53:36.403Z,42.27
2022-08-16T05:56:13.120Z,43.40
2022-08-16T05:58:49.217Z,45.21
2022-08-16T06:01:24.622Z,47.02
2022-08-16T06:03:57.986Z,48.69
2022-08-16T06:06:36.965Z,50.03
2022-08-16T06:09:13.291Z,52.14
2022-08-16T06:11:47.463Z,53.48
2022-08-16T06:14:21.997Z,55.41
2022-08-16T06:16:55.413Z,57.13
2022-08-16T06:19:28.668Z,57.98
2022-08-16T06:22:04.953Z,58.70
2022-08-16T06:24:54.217Z,59.05
2022-08-16T06:27:13.416Z,59.70
2022-08-16T06:29:50.244Z,59.97
2022-08-16T06:32:27.618Z,59.97
2022-08-16T06:35:02.813Z,60.86
2022-08-16T06:37:37.327Z,61.30
2022-08-16T06:40:12.982Z,60.23
2022-08-16T06:42:50.231Z,59.60
2022-08-16T06:45:19.319Z,59.91
2022-08-16T06:47:56.829Z,58.52
2022-08-16T06:50:32.764Z,58.12
2022-08-16T06:53:09.600Z,58.37
2022-08-16T06:55:45.104Z,57.75
2022-08-16T06:58:21.931Z,57.99
2022-08-16T07:00:54.228Z,58.15
2022-08-16T07:03:32.523Z,58.28
2022-08-16T07:06:03.727Z,58.76
2022-08-16T07:08:38.478Z,59.53
2022-08-16T07:11:12.528Z,60.59
2022-08-16T07:14:00.233Z,61.28
2022-08-16T07:16:27.768Z,61.52
2022-08-16T07:19:01.906Z,61.24
2022-08-16T07:21:46.580Z,60.81
2022-08-16T07:24:30.844Z,61.02
2022-08-16T07:26:49.043Z,61.42
2022-08-16T07:29:22.277Z,61.91
2022-08-16T07:31:55.750Z,62.41
2022-08-16T07:34:35.043Z,63.39
2022-08-16T07:37:09.665Z,64.36
2022-08-16T07:39:47.714Z,65.95
2022-08-16T07:42:28.438Z,67.23
2022-08-16T07:44:58.429Z,67.98
2022-08-16T07:47:32.149Z,69.13
2022-08-16T07:50:07.457Z,69.60
2022-08-16T07:52:40.500Z,69.94
2022-08-16T07:55:16.671Z,70.19
2022-08-16T07:58:00.728Z,71.50
2022-08-16T08:00:26.574Z,71.96
2022-08-16T08:03:00.871Z,73.39
2022-08-16T08:05:36.999Z,75.33
2022-08-16T08:08:11.824Z,76.88
2022-08-16T08:10:47.083Z,77.39
2022-08-16T08:13:31.027Z,77.39
2022-08-16T08:15:55.558Z,77.25
2022-08-16T08:18:31.080Z,77.61
2022-08-16T08:21:06.356Z,79.00
2022-08-16T08:23:42.520Z,78.83
2022-08-16T08:26:17.767Z,78.31
2022-08-16T08:28:49.055Z,77.70
2022-08-16T08:31:22.983Z,77.71
2022-08-16T08:33:57.294Z,78.38
2022-08-16T08:36:34.251Z,77.68
2022-08-16T08:39:12.753Z,76.61
2022-08-16T08:41:49.269Z,77.14
2022-08-16T08:44:29.883Z,76.09
2022-08-16T08:47:00.176Z,75.73
2022-08-16T08:49:50.494Z,76.56
2022-08-16T08:52:11.773Z,78.82
2022-08-16T08:54:47.826Z,79.60
2022-08-16T08:57:24.156Z,79.73
2022-08-16T09:00:01.999Z,79.99
2022-08-16T09:02:37.766Z,80.18
2022-08-16T09:05:15.038Z,81.30
2022-08-16T09:07:54.634Z,82.53
2022-08-16T09:10:25.034Z,82.05
2022-08-16T09:13:01.018Z,82.74
2022-08-16T09:15:35.537Z,83.30
2022-08-16T09:18:35.402Z,83.26
2022-08-16T09:20:58.915Z,83.75
2022-08-16T09:23:21.619Z,83.26
2022-08-16T09:25:56.669Z,83.20
2022-08-16T09:28:38.087Z,82.84
2022-08-16T09:31:07.738Z,82.56
2022-08-16T09:33:43.680Z,81.29
2022-08-16T09:36:31.939Z,80.20
2022-08-16T09:38:50.747Z,79.14
2022-08-16T09:41:23.771Z,77.70
2022-08-16T09:44:00.843Z,76.94
2022-08-16T09:46:49.156Z,76.08
2022-08-16T09:49:08.508Z,74.88
2022-08-16T09:51:41.391Z,73.98
2022-08-16T09:54:16.678Z,73.51
2022-08-16T09:56:52.151Z,73.01
2022-08-16T09:59:30.592Z,72.92
2022-08-16T10:02:26.543Z,72.28
2022-08-16T10:04:53.043Z,71.72
2022-08-16T10:07:11.901Z,71.50
2022-08-16T10:09:54.670Z,71.08
2022-08-16T10:12:42.582Z,70.76
2022-08-16T10:15:18.046Z,70.67
2022-08-16T10:18:01.119Z,69.80
2022-08-16T10:20:35.173Z,69.35
2022-08-16T10:23:16.918Z,68.58
2022-08-16T10:27:16.547Z,68.44
2022-08-16T10:28:29.094Z,67.52
2022-08-16T10:30:58.832Z,66.20
2022-08-16T10:33:34.373Z,66.15
2022-08-16T10:36:10.217Z,65.09
2022-08-16T10:38:44.967Z,65.21
2022-08-16T10:41:21.043Z,64.71
2022-08-16T10:43:54.230Z,63.20
2022-08-16T10:46:39.170Z,63.70
2022-08-16T10:49:05.120Z,63.83
2022-08-16T10:52:01.433Z,62.81
2022-08-16T10:54:29.657Z,62.01
2022-08-16T10:56:51.827Z,61.66
2022-08-16T10:59:38.192Z,60.42
2022-08-16T11:07:43.552Z,59.40
2022-08-16T11:09:44.307Z,58.77
2022-08-16T11:12:18.756Z,54.41
2022-08-16T11:17:26.831Z,50.48
2022-08-16T11:20:00.878Z,49.83
2022-08-16T11:22:46.967Z,49.82
2022-08-16T11:25:17.493Z,49.59
2022-08-16T11:27:45.026Z,47.94
2022-08-16T11:30:19.956Z,48.09
2022-08-16T11:32:53.559Z,46.52
2022-08-16T11:36:22.366Z,46.80
2022-08-16T11:38:46.798Z,47.15
2022-08-16T11:40:57.126Z,47.66
2022-08-16T11:43:34.921Z,47.26
2022-08-16T11:46:43.124Z,47.70
2022-08-16T11:48:46.966Z,46.59
2022-08-16T11:51:19.975Z,46.00
2022-08-16T11:53:53.241Z,46.99
2022-08-16T11:56:29.906Z,46.29
2022-08-16T11:59:02.032Z,47.17
2022-08-16T12:01:55.311Z,47.41
2022-08-16T12:04:09.809Z,47.31
2022-08-16T12:06:44.225Z,48.14
2022-08-16T12:09:18.127Z,48.60
2022-08-16T12:11:53.579Z,49.28
2022-08-16T12:14:26.868Z,49.09
2022-08-16T12:17:03.357Z,48.70
2022-08-16T12:19:36.757Z,49.26
2022-08-16T12:22:18.571Z,49.47
2022-08-16T12:24:51.006Z,49.25
2022-08-16T12:27:24.382Z,49.73
2022-08-16T12:29:58.354Z,49.38
2022-08-16T12:32:39.250Z,49.83
2022-08-16T12:35:08.383Z,50.75
2022-08-16T12:37:43.526Z,50.04
2022-08-16T12:40:24.947Z,50.57
2022-08-16T12:43:00.793Z,49.73
2022-08-16T12:45:38.086Z,50.11
2022-08-16T12:48:33.905Z,49.76
2022-08-16T12:51:13.618Z,49.79
2022-08-16T12:53:43.829Z,50.21
2022-08-16T12:56:17.290Z,49.54
2022-08-16T12:58:52.192Z,49.72
2022-08-16T13:01:32.024Z,48.92
2022-08-16T13:04:19.651Z,48.95
2022-08-16T13:06:42.739Z,49.45
2022-08-16T13:09:23.459Z,49.75
2022-08-16T13:12:05.752Z,49.76
2022-08-16T13:14:43.835Z,49.53
2022-08-16T13:17:26.255Z,49.91
2022-08-16T13:20:10.964Z,50.17
2022-08-16T13:25:21.565Z,49.62
2022-08-16T13:28:14.698Z,48.76
2022-08-16T13:30:36.063Z,48.92
2022-08-16T13:33:11.334Z,49.06
2022-08-16T13:35:55.710Z,48.10
2022-08-16T13:38:25.132Z,46.81
2022-08-16T13:40:58.570Z,47.44
2022-08-16T13:43:32.939Z,47.73
2022-08-16T13:46:06.880Z,47.08
2022-08-16T13:48:44.533Z,46.92
2022-08-16T13:51:18.675Z,47.18
2022-08-16T13:54:02.606Z,47.43
2022-08-16T13:56:34.543Z,47.43
2022-08-16T13:59:06.192Z,47.40
2022-08-16T14:01:40.702Z,47.17
2022-08-16T14:04:23.286Z,47.42
2022-08-16T14:06:49.189Z,47.47
2022-08-16T14:09:22.371Z,46.78
2022-08-16T14:11:55.263Z,46.32
2022-08-16T14:14:30.057Z,46.10
2022-08-16T14:17:04.227Z,45.99
2022-08-16T14:19:37.187Z,46.23
2022-08-16T14:22:30.417Z,47.03
2022-08-16T14:24:51.637Z,47.23
2022-08-16T14:27:28.529Z,46.84
2022-08-16T14:30:02.516Z,47.15
2022-08-16T14:32:35.256Z,47.05
2022-08-16T14:35:12.478Z,47.40
2022-08-16T14:37:45.816Z,47.85
2022-08-16T14:40:23.145Z,48.07
2022-08-16T14:42:57.741Z,48.12
2022-08-16T14:45:32.369Z,48.46
2022-08-16T14:48:06.319Z,48.47
2022-08-16T14:50:39.258Z,48.87
2022-08-16T14:53:12.272Z,49.53
2022-08-16T14:55:46.474Z,48.46
2022-08-16T14:58:34.995Z,48.34
2022-08-16T15:00:57.671Z,47.65
2022-08-16T15:03:32.916Z,47.78
2022-08-16T15:06:05.884Z,47.35
2022-08-16T15:08:40.355Z,47.93
2022-08-16T15:11:13.478Z,48.09
2022-08-16T15:13:46.338Z,48.92
2022-08-16T15:16:27.684Z,49.20
2022-08-16T15:18:55.438Z,49.43
2022-08-16T15:21:29.634Z,49.91
2022-08-16T15:24:03.378Z,49.77
2022-08-16T15:26:45.353Z,49.85
2022-08-16T15:29:12.847Z,50.23
2022-08-16T15:31:48.505Z,50.54
2022-08-16T15:34:26.030Z,50.90
2022-08-16T15:36:57.470Z,51.24
2022-08-16T15:39:39.290Z,51.65
2022-08-16T15:42:11.057Z,51.83
2022-08-16T15:44:52.145Z,51.93
2022-08-16T15:47:19.983Z,51.68
2022-08-16T15:49:55.505Z,51.89
2022-08-16T15:52:37.428Z,51.86
2022-08-16T15:55:23.977Z,52.01
2022-08-16T15:57:46.806Z,52.09
2022-08-16T16:00:21.014Z,52.39
2022-08-16T16:03:08.941Z,52.71
2022-08-16T16:05:46.424Z,52.92
2022-08-16T16:08:24.057Z,53.68
2022-08-16T16:11:00.384Z,54.15
2022-08-16T16:13:36.462Z,54.70
2022-08-16T16:16:13.276Z,55.29
2022-08-16T16:18:49.031Z,56.00
2022-08-16T16:21:21.596Z,56.58
2022-08-16T16:23:59.010Z,57.25
2022-08-16T16:26:30.543Z,57.87
2022-08-16T16:29:08.784Z,58.27
2022-08-16T16:31:41.216Z,58.71
2022-08-16T16:34:16.030Z,59.10
2022-08-16T16:36:48.893Z,59.37
2022-08-16T16:39:22.614Z,59.42
2022-08-16T16:41:55.469Z,59.49
2022-08-16T16:44:31.982Z,59.76
2022-08-16T16:47:04.639Z,59.90
2022-08-16T16:49:41.665Z,60.11
2022-08-16T16:52:14.070Z,60.33
2022-08-16T16:54:49.401Z,60.65
2022-08-16T16:57:42.229Z,61.20
2022-08-16T17:00:30.365Z,61.75
2022-08-16T17:02:53.693Z,62.26
2022-08-16T17:05:32.450Z,62.63
2022-08-16T17:08:07.036Z,63.02
2022-08-16T17:10:46.139Z,63.43
2022-08-16T17:13:15.790Z,63.89
2022-08-16T17:15:52.124Z,63.87
2022-08-16T17:19:15.381Z,63.73
2022-08-16T17:20:58.894Z,63.63
2022-08-16T17:23:58.722Z,63.64
2022-08-16T17:26:10.503Z,63.53
2022-08-16T17:28:58.629Z,63.28
2022-08-16T17:31:17.182Z,63.18
2022-08-16T17:33:54.421Z,63.43
2022-08-16T17:36:36.516Z,63.84
2022-08-16T17:39:02.081Z,64.14
2022-08-16T17:41:36.750Z,64.70
2022-08-16T17:44:10.767Z,65.12
2022-08-16T17:46:52.450Z,65.30
2022-08-16T17:49:18.720Z,65.61
2022-08-16T17:51:51.630Z,65.75
2022-08-16T17:54:30.769Z,66.33
2022-08-16T17:57:01.238Z,66.32
2022-08-16T17:59:35.526Z,66.43
2022-08-16T18:02:15.410Z,67.21
2022-08-16T18:04:48.281Z,67.27
2022-08-16T18:07:18.301Z,67.56
2022-08-16T18:09:52.407Z,68.09
2022-08-16T18:12:44.489Z,68.56
2022-08-16T18:15:06.751Z,68.72
2022-08-16T18:17:40.024Z,69.11
2022-08-16T18:20:16.752Z,69.15
2022-08-16T18:22:50.240Z,69.57
2022-08-16T18:25:23.191Z,69.85
2022-08-16T18:27:56.444Z,70.60
2022-08-16T18:30:29.465Z,70.88
2022-08-16T18:33:02.297Z,71.16
2022-08-16T18:35:36.558Z,71.53
2022-08-16T18:38:09.442Z,71.88
2022-08-16T18:40:43.551Z,71.76
2022-08-16T18:43:20.075Z,71.80
2022-08-16T18:45:56.495Z,71.47
2022-08-16T18:48:29.840Z,71.37
2022-08-16T18:51:09.250Z,71.32
2022-08-16T18:53:38.756Z,71.99
2022-08-16T18:56:12.125Z,72.01
2022-08-16T18:58:44.920Z,71.96
2022-08-16T19:01:17.905Z,71.97
2022-08-16T19:03:51.721Z,72.04
2022-08-16T19:06:24.428Z,72.21
2022-08-16T19:08:57.233Z,72.35
2022-08-16T19:11:30.362Z,72.66
2022-08-16T19:14:03.377Z,73.05
2022-08-16T19:16:36.213Z,73.34
2022-08-16T19:19:09.275Z,73.67
2022-08-16T19:21:42.109Z,74.02
2022-08-16T19:24:17.940Z,74.38
2022-08-16T19:26:49.587Z,74.61
2022-08-16T19:29:23.375Z,74.96
2022-08-16T19:31:56.208Z,75.37
2022-08-16T19:34:29.484Z,75.91
2022-08-16T19:37:02.390Z,76.13
2022-08-16T19:39:36.855Z,76.64
2022-08-16T19:42:20.114Z,76.98
2022-08-16T19:44:57.121Z,77.59
2022-08-16T19:47:30.230Z,77.43
2022-08-16T19:50:03.118Z,77.64
2022-08-16T19:52:37.465Z,77.74
2022-08-16T19:55:13.591Z,77.88
2022-08-16T19:57:47.966Z,78.14
2022-08-16T20:00:21.411Z,78.28
2022-08-16T20:02:55.716Z,78.36
2022-08-16T20:05:35.402Z,78.63
2022-08-16T20:08:08.342Z,78.84
2022-08-16T20:10:42.625Z,79.17
2022-08-16T20:13:22.196Z,79.47
2022-08-16T20:15:55.034Z,79.79
2022-08-16T20:18:27.971Z,80.01
2022-08-16T20:21:00.925Z,80.12
2022-08-16T20:23:34.213Z,80.28
2022-08-16T20:26:07.200Z,80.59
2022-08-16T20:28:53.600Z,80.73
2022-08-16T20:31:16.170Z,81.41
2022-08-16T20:33:49.210Z,81.41
2022-08-16T20:36:22.432Z,81.16
2022-08-16T20:38:56.999Z,81.41
2022-08-16T20:41:30.185Z,82.11
2022-08-16T20:44:03.109Z,82.11
2022-08-16T20:46:39.674Z,82.14
2022-08-16T20:49:11.506Z,82.11
2022-08-16T20:51:49.477Z,82.20
2022-08-16T20:54:19.007Z,82.35
2022-08-16T20:56:52.319Z,82.47
2022-08-16T20:59:25.553Z,82.72
2022-08-16T21:01:59.498Z,82.88
2022-08-16T21:04:32.605Z,83.04
2022-08-16T21:07:05.677Z,83.09
2022-08-16T21:09:39.476Z,83.19
2022-08-16T21:12:15.433Z,83.36
2022-08-16T21:14:50.645Z,83.37
2022-08-16T21:17:23.587Z,83.41
2022-08-16T21:19:56.816Z,83.34
2022-08-16T21:22:29.803Z,83.48
2022-08-16T21:25:02.573Z,83.53
2022-08-16T21:27:44.496Z,83.43
2022-08-16T21:30:11.501Z,83.64
2022-08-16T21:32:44.409Z,83.66
2022-08-16T21:35:19.583Z,83.56
2022-08-16T21:38:03.109Z,83.60
2022-08-16T21:40:32.102Z,83.43
2022-08-16T21:43:11.319Z,83.43
2022-08-16T21:45:46.991Z,83.28
2022-08-16T21:48:33.943Z,83.61
2022-08-16T21:50:54.555Z,83.61
2022-08-16T21:53:27.781Z,83.68
2022-08-16T21:56:02.391Z,83.82
2022-08-16T21:58:35.785Z,83.89
2022-08-16T22:01:08.901Z,83.91
2022-08-16T22:03:42.697Z,83.99
2022-08-16T22:06:15.458Z,84.12
2022-08-16T22:08:51.116Z,84.28
2022-08-16T22:11:26.061Z,84.23
2022-08-16T22:13:59.575Z,84.28
2022-08-16T22:16:37.144Z,84.27
2022-08-16T22:19:11.897Z,84.44
2022-08-16T22:21:45.742Z,84.47
2022-08-16T22:24:18.720Z,84.40
2022-08-16T22:26:51.805Z,84.59
2022-08-16T22:29:25.018Z,84.62
2022-08-16T22:31:57.863Z,84.23
2022-08-16T22:34:32.553Z,84.23
2022-08-16T22:37:04.505Z,84.67
2022-08-16T22:39:38.248Z,84.58
2022-08-16T22:42:11.660Z,84.49
2022-08-16T22:44:46.496Z,84.57
2022-08-16T22:47:19.633Z,84.54
2022-08-16T22:49:54.165Z,84.58
2022-08-16T22:52:58.167Z,84.48
2022-08-16T22:55:03.652Z,84.45
2022-08-16T22:57:37.020Z,84.50
2022-08-16T23:00:13.953Z,84.67
2022-08-16T23:03:06.235Z,84.76
2022-08-16T23:05:43.337Z,84.71
2022-08-16T23:08:32.255Z,84.46
2022-08-16T23:10:54.274Z,84.46
2022-08-16T23:13:28.272Z,84.46
2022-08-16T23:16:03.311Z,84.34
2022-08-16T23:18:37.880Z,84.23
2022-08-16T23:21:12.452Z,84.29
2022-08-16T23:23:46.873Z,84.18
2022-08-16T23:26:46.918Z,84.24
2022-08-16T23:28:55.898Z,84.52
2022-08-16T23:31:28.780Z,84.87
2022-08-16T23:34:02.351Z,84.94
2022-08-16T23:36:35.502Z,85.08
2022-08-16T23:39:08.412Z,85.25
2022-08-16T23:41:41.807Z,85.14
2022-08-16T23:44:44.233Z,85.23
2022-08-16T23:46:50.061Z,85.16
2022-08-16T23:49:59.557Z,85.31
2022-08-16T23:51:56.660Z,85.30
2022-08-16T23:54:30.293Z,85.34
2022-08-16T23:57:03.599Z,85.33
2022-08-16T23:59:48.692Z,85.40
